sensor_id;sensor_type;location;lat;lon;timestamp;temperature;humidity
71128;SHT30;59249;59.736;30.568;2023-12-20T00:01:39;1.86;86.86
71128;SHT30;59249;59.736;30.568;2023-12-20T00:04:08;1.73;86.78
71128;SHT30;59249;59.736;30.568;2023-12-20T00:06:37;1.70;86.81
71128;SHT30;59249;59.736;30.568;2023-12-20T00:09:08;1.77;86.90
71128;SHT30;59249;59.736;30.568;2023-12-20T00:11:37;1.71;86.76
71128;SHT30;59249;59.736;30.568;2023-12-20T00:14:06;1.73;86.93
71128;SHT30;59249;59.736;30.568;2023-12-20T00:16:35;1.77;86.77
71128;SHT30;59249;59.736;30.568;2023-12-20T00:19:04;1.71;86.66
71128;SHT30;59249;59.736;30.568;2023-12-20T00:21:33;1.71;86.62
71128;SHT30;59249;59.736;30.568;2023-12-20T00:24:02;1.71;86.62
71128;SHT30;59249;59.736;30.568;2023-12-20T00:26:32;1.70;86.76
71128;SHT30;59249;59.736;30.568;2023-12-20T00:29:01;1.70;86.51
71128;SHT30;59249;59.736;30.568;2023-12-20T00:31:30;1.77;86.41
71128;SHT30;59249;59.736;30.568;2023-12-20T00:33:59;1.83;86.16
71128;SHT30;59249;59.736;30.568;2023-12-20T00:36:29;1.85;86.00
71128;SHT30;59249;59.736;30.568;2023-12-20T00:38:57;1.73;85.99
71128;SHT30;59249;59.736;30.568;2023-12-20T00:41:26;1.77;85.89
71128;SHT30;59249;59.736;30.568;2023-12-20T00:43:57;1.70;85.93
71128;SHT30;59249;59.736;30.568;2023-12-20T00:46:26;1.71;86.02
71128;SHT30;59249;59.736;30.568;2023-12-20T00:48:55;1.74;86.18
71128;SHT30;59249;59.736;30.568;2023-12-20T00:51:24;1.85;85.93
71128;SHT30;59249;59.736;30.568;2023-12-20T00:53:53;1.73;85.75
71128;SHT30;59249;59.736;30.568;2023-12-20T00:56:22;1.76;85.55
71128;SHT30;59249;59.736;30.568;2023-12-20T00:58:51;1.67;85.65
71128;SHT30;59249;59.736;30.568;2023-12-20T01:01:22;1.79;85.52
71128;SHT30;59249;59.736;30.568;2023-12-20T01:03:51;1.85;85.47
71128;SHT30;59249;59.736;30.568;2023-12-20T01:06:20;1.74;85.47
71128;SHT30;59249;59.736;30.568;2023-12-20T01:08:49;1.67;85.57
71128;SHT30;59249;59.736;30.568;2023-12-20T01:11:18;1.73;85.64
71128;SHT30;59249;59.736;30.568;2023-12-20T01:13:47;1.64;85.78
71128;SHT30;59249;59.736;30.568;2023-12-20T01:16:16;1.83;85.57
71128;SHT30;59249;59.736;30.568;2023-12-20T01:18:46;1.68;85.30
71128;SHT30;59249;59.736;30.568;2023-12-20T01:21:16;1.71;85.02
71128;SHT30;59249;59.736;30.568;2023-12-20T01:23:44;1.78;84.83
71128;SHT30;59249;59.736;30.568;2023-12-20T01:26:15;1.86;84.82
71128;SHT30;59249;59.736;30.568;2023-12-20T01:28:44;1.82;84.96
71128;SHT30;59249;59.736;30.568;2023-12-20T01:31:13;1.67;84.94
71128;SHT30;59249;59.736;30.568;2023-12-20T01:33:42;1.76;84.96
71128;SHT30;59249;59.736;30.568;2023-12-20T01:36:13;1.69;85.17
71128;SHT30;59249;59.736;30.568;2023-12-20T01:38:42;1.79;85.15
71128;SHT30;59249;59.736;30.568;2023-12-20T01:41:11;1.79;85.13
71128;SHT30;59249;59.736;30.568;2023-12-20T01:43:40;1.78;85.11
71128;SHT30;59249;59.736;30.568;2023-12-20T01:46:19;1.69;84.92
71128;SHT30;59249;59.736;30.568;2023-12-20T01:48:49;1.74;84.93
71128;SHT30;59249;59.736;30.568;2023-12-20T01:51:20;1.77;84.88
71128;SHT30;59249;59.736;30.568;2023-12-20T01:53:50;1.69;84.94
71128;SHT30;59249;59.736;30.568;2023-12-20T01:56:19;1.68;85.05
71128;SHT30;59249;59.736;30.568;2023-12-20T01:58:48;1.67;85.10
71128;SHT30;59249;59.736;30.568;2023-12-20T02:01:18;1.63;85.03
71128;SHT30;59249;59.736;30.568;2023-12-20T02:03:47;1.71;84.99
71128;SHT30;59249;59.736;30.568;2023-12-20T02:06:19;1.77;84.79
71128;SHT30;59249;59.736;30.568;2023-12-20T02:08:50;1.61;84.84
71128;SHT30;59249;59.736;30.568;2023-12-20T02:11:20;1.62;84.68
71128;SHT30;59249;59.736;30.568;2023-12-20T02:13:49;1.61;84.62
71128;SHT30;59249;59.736;30.568;2023-12-20T02:16:19;1.67;84.47
71128;SHT30;59249;59.736;30.568;2023-12-20T02:18:48;1.64;84.47
71128;SHT30;59249;59.736;30.568;2023-12-20T02:21:25;1.77;84.39
71128;SHT30;59249;59.736;30.568;2023-12-20T02:23:54;1.59;84.36
71128;SHT30;59249;59.736;30.568;2023-12-20T02:26:23;1.71;84.21
71128;SHT30;59249;59.736;30.568;2023-12-20T02:28:52;1.72;83.88
71128;SHT30;59249;59.736;30.568;2023-12-20T02:31:21;1.60;83.89
71128;SHT30;59249;59.736;30.568;2023-12-20T02:33:50;1.69;83.67
71128;SHT30;59249;59.736;30.568;2023-12-20T02:36:18;1.73;83.71
71128;SHT30;59249;59.736;30.568;2023-12-20T02:38:49;1.71;83.65
71128;SHT30;59249;59.736;30.568;2023-12-20T02:41:18;1.70;83.50
71128;SHT30;59249;59.736;30.568;2023-12-20T02:43:48;1.78;83.41
71128;SHT30;59249;59.736;30.568;2023-12-20T02:46:17;1.81;83.22
71128;SHT30;59249;59.736;30.568;2023-12-20T02:48:47;1.72;83.16
71128;SHT30;59249;59.736;30.568;2023-12-20T02:51:16;1.77;83.36
71128;SHT30;59249;59.736;30.568;2023-12-20T02:53:45;1.67;83.40
71128;SHT30;59249;59.736;30.568;2023-12-20T02:56:15;1.64;83.38
71128;SHT30;59249;59.736;30.568;2023-12-20T02:58:44;1.65;83.34
71128;SHT30;59249;59.736;30.568;2023-12-20T03:01:13;1.66;83.37
71128;SHT30;59249;59.736;30.568;2023-12-20T03:03:42;1.81;83.36
71128;SHT30;59249;59.736;30.568;2023-12-20T03:06:11;1.81;83.25
71128;SHT30;59249;59.736;30.568;2023-12-20T03:08:40;1.77;83.13
71128;SHT30;59249;59.736;30.568;2023-12-20T03:11:12;1.81;83.36
71128;SHT30;59249;59.736;30.568;2023-12-20T03:13:43;1.80;83.11
71128;SHT30;59249;59.736;30.568;2023-12-20T03:16:13;1.93;83.14
71128;SHT30;59249;59.736;30.568;2023-12-20T03:18:44;1.81;83.02
71128;SHT30;59249;59.736;30.568;2023-12-20T03:21:13;1.78;82.96
71128;SHT30;59249;59.736;30.568;2023-12-20T03:23:42;1.77;82.94
71128;SHT30;59249;59.736;30.568;2023-12-20T03:26:11;1.86;82.95
71128;SHT30;59249;59.736;30.568;2023-12-20T03:28:42;1.75;83.06
71128;SHT30;59249;59.736;30.568;2023-12-20T03:31:11;1.90;82.66
71128;SHT30;59249;59.736;30.568;2023-12-20T03:33:40;1.74;82.76
71128;SHT30;59249;59.736;30.568;2023-12-20T03:36:09;1.76;82.70
71128;SHT30;59249;59.736;30.568;2023-12-20T03:38:38;1.77;82.71
71128;SHT30;59249;59.736;30.568;2023-12-20T03:41:07;1.75;82.76
71128;SHT30;59249;59.736;30.568;2023-12-20T03:43:36;1.79;82.60
71128;SHT30;59249;59.736;30.568;2023-12-20T03:46:08;1.83;82.49
71128;SHT30;59249;59.736;30.568;2023-12-20T03:48:37;1.85;82.50
71128;SHT30;59249;59.736;30.568;2023-12-20T03:51:06;1.81;82.54
71128;SHT30;59249;59.736;30.568;2023-12-20T03:53:35;1.81;82.53
71128;SHT30;59249;59.736;30.568;2023-12-20T03:56:05;1.81;82.41
71128;SHT30;59249;59.736;30.568;2023-12-20T03:58:34;1.90;82.45
71128;SHT30;59249;59.736;30.568;2023-12-20T04:01:03;1.91;82.33
71128;SHT30;59249;59.736;30.568;2023-12-20T04:03:39;2.09;82.36
71128;SHT30;59249;59.736;30.568;2023-12-20T04:06:08;2.11;82.11
71128;SHT30;59249;59.736;30.568;2023-12-20T04:08:37;1.95;82.17
71128;SHT30;59249;59.736;30.568;2023-12-20T04:11:08;2.15;82.22
71128;SHT30;59249;59.736;30.568;2023-12-20T04:13:37;2.04;82.05
71128;SHT30;59249;59.736;30.568;2023-12-20T04:16:06;2.09;81.98
71128;SHT30;59249;59.736;30.568;2023-12-20T04:18:35;2.02;82.10
71128;SHT30;59249;59.736;30.568;2023-12-20T04:21:06;2.09;82.15
71128;SHT30;59249;59.736;30.568;2023-12-20T04:23:35;2.00;82.27
71128;SHT30;59249;59.736;30.568;2023-12-20T04:26:04;1.93;82.40
71128;SHT30;59249;59.736;30.568;2023-12-20T04:28:33;2.06;82.23
71128;SHT30;59249;59.736;30.568;2023-12-20T04:31:02;2.16;82.21
71128;SHT30;59249;59.736;30.568;2023-12-20T04:33:31;2.08;81.99
71128;SHT30;59249;59.736;30.568;2023-12-20T04:36:00;2.11;82.04
71128;SHT30;59249;59.736;30.568;2023-12-20T04:38:31;2.09;81.94
71128;SHT30;59249;59.736;30.568;2023-12-20T04:41:00;2.25;81.93
71128;SHT30;59249;59.736;30.568;2023-12-20T04:43:29;2.24;81.99
71128;SHT30;59249;59.736;30.568;2023-12-20T04:45:58;2.07;81.88
71128;SHT30;59249;59.736;30.568;2023-12-20T04:48:28;2.22;81.90
71128;SHT30;59249;59.736;30.568;2023-12-20T04:50:57;2.26;81.84
71128;SHT30;59249;59.736;30.568;2023-12-20T04:53:26;2.24;81.65
71128;SHT30;59249;59.736;30.568;2023-12-20T04:55:56;2.25;81.57
71128;SHT30;59249;59.736;30.568;2023-12-20T04:58:25;2.30;81.42
71128;SHT30;59249;59.736;30.568;2023-12-20T05:00:54;2.26;81.48
71128;SHT30;59249;59.736;30.568;2023-12-20T05:03:23;2.20;81.66
71128;SHT30;59249;59.736;30.568;2023-12-20T05:05:52;2.13;81.65
71128;SHT30;59249;59.736;30.568;2023-12-20T05:08:21;2.13;81.76
71128;SHT30;59249;59.736;30.568;2023-12-20T05:10:50;1.95;81.75
71128;SHT30;59249;59.736;30.568;2023-12-20T05:13:21;2.01;81.70
71128;SHT30;59249;59.736;30.568;2023-12-20T05:16:00;1.97;81.86
71128;SHT30;59249;59.736;30.568;2023-12-20T05:18:29;2.05;81.87
71128;SHT30;59249;59.736;30.568;2023-12-20T05:20:58;2.06;81.72
71128;SHT30;59249;59.736;30.568;2023-12-20T05:23:28;2.06;81.64
71128;SHT30;59249;59.736;30.568;2023-12-20T05:25:57;2.04;81.76
71128;SHT30;59249;59.736;30.568;2023-12-20T05:28:28;2.15;81.42
71128;SHT30;59249;59.736;30.568;2023-12-20T05:30:57;2.01;81.29
71128;SHT30;59249;59.736;30.568;2023-12-20T05:33:26;2.05;81.44
71128;SHT30;59249;59.736;30.568;2023-12-20T05:35:55;2.20;81.20
71128;SHT30;59249;59.736;30.568;2023-12-20T05:38:24;2.23;81.19
71128;SHT30;59249;59.736;30.568;2023-12-20T05:40:53;2.24;81.37
71128;SHT30;59249;59.736;30.568;2023-12-20T05:43:22;2.30;81.15
71128;SHT30;59249;59.736;30.568;2023-12-20T05:45:53;2.22;81.08
71128;SHT30;59249;59.736;30.568;2023-12-20T05:48:22;2.22;81.21
71128;SHT30;59249;59.736;30.568;2023-12-20T05:50:52;2.28;81.10
71128;SHT30;59249;59.736;30.568;2023-12-20T05:53:21;2.41;81.10
71128;SHT30;59249;59.736;30.568;2023-12-20T05:55:50;2.38;81.25
71128;SHT30;59249;59.736;30.568;2023-12-20T05:58:19;2.34;81.08
71128;SHT30;59249;59.736;30.568;2023-12-20T06:00:48;2.31;81.07
71128;SHT30;59249;59.736;30.568;2023-12-20T06:03:19;2.16;81.24
71128;SHT30;59249;59.736;30.568;2023-12-20T06:05:48;2.17;81.37
71128;SHT30;59249;59.736;30.568;2023-12-20T06:08:19;2.22;81.32
71128;SHT30;59249;59.736;30.568;2023-12-20T06:10:48;2.07;81.59
71128;SHT30;59249;59.736;30.568;2023-12-20T06:13:17;2.00;81.53
71128;SHT30;59249;59.736;30.568;2023-12-20T06:15:46;1.97;81.40
71128;SHT30;59249;59.736;30.568;2023-12-20T06:18:15;2.18;81.40
71128;SHT30;59249;59.736;30.568;2023-12-20T06:20:46;2.11;81.27
71128;SHT30;59249;59.736;30.568;2023-12-20T06:23:15;2.05;81.25
71128;SHT30;59249;59.736;30.568;2023-12-20T06:25:44;2.21;81.19
71128;SHT30;59249;59.736;30.568;2023-12-20T06:28:13;2.25;81.05
71128;SHT30;59249;59.736;30.568;2023-12-20T06:30:43;2.16;80.98
71128;SHT30;59249;59.736;30.568;2023-12-20T06:33:13;2.28;80.96
71128;SHT30;59249;59.736;30.568;2023-12-20T06:35:42;2.27;80.93
71128;SHT30;59249;59.736;30.568;2023-12-20T06:38:13;2.28;81.04
71128;SHT30;59249;59.736;30.568;2023-12-20T06:40:42;2.30;80.86
71128;SHT30;59249;59.736;30.568;2023-12-20T06:43:12;2.24;80.99
71128;SHT30;59249;59.736;30.568;2023-12-20T06:45:59;2.22;80.82
71128;SHT30;59249;59.736;30.568;2023-12-20T06:48:29;2.37;80.87
71128;SHT30;59249;59.736;30.568;2023-12-20T06:50:59;2.28;80.92
71128;SHT30;59249;59.736;30.568;2023-12-20T06:53:31;2.27;80.90
71128;SHT30;59249;59.736;30.568;2023-12-20T06:56:00;2.37;80.93
71128;SHT30;59249;59.736;30.568;2023-12-20T06:58:29;2.39;80.62
71128;SHT30;59249;59.736;30.568;2023-12-20T07:00:58;2.41;80.40
71128;SHT30;59249;59.736;30.568;2023-12-20T07:03:27;2.32;80.19
71128;SHT30;59249;59.736;30.568;2023-12-20T07:05:56;2.48;80.19
71128;SHT30;59249;59.736;30.568;2023-12-20T07:08:25;2.48;80.20
71128;SHT30;59249;59.736;30.568;2023-12-20T07:10:56;2.49;80.44
71128;SHT30;59249;59.736;30.568;2023-12-20T07:13:25;2.44;80.37
71128;SHT30;59249;59.736;30.568;2023-12-20T07:15:54;2.42;80.45
71128;SHT30;59249;59.736;30.568;2023-12-20T07:18:23;2.48;80.40
71128;SHT30;59249;59.736;30.568;2023-12-20T07:20:52;2.50;80.13
71128;SHT30;59249;59.736;30.568;2023-12-20T07:23:22;2.53;80.09
71128;SHT30;59249;59.736;30.568;2023-12-20T07:25:56;2.47;80.05
71128;SHT30;59249;59.736;30.568;2023-12-20T07:28:28;2.52;79.83
71128;SHT30;59249;59.736;30.568;2023-12-20T07:31:00;2.55;79.93
71128;SHT30;59249;59.736;30.568;2023-12-20T07:33:55;2.53;80.13
71128;SHT30;59249;59.736;30.568;2023-12-20T07:36:28;2.42;80.21
71128;SHT30;59249;59.736;30.568;2023-12-20T07:39:04;2.48;79.96
71128;SHT30;59249;59.736;30.568;2023-12-20T07:41:40;2.51;79.94
71128;SHT30;59249;59.736;30.568;2023-12-20T07:44:23;2.48;80.07
71128;SHT30;59249;59.736;30.568;2023-12-20T07:47:06;2.53;80.05
71128;SHT30;59249;59.736;30.568;2023-12-20T07:49:40;2.65;79.94
71128;SHT30;59249;59.736;30.568;2023-12-20T07:52:15;2.53;80.14
71128;SHT30;59249;59.736;30.568;2023-12-20T07:54:51;2.55;80.28
71128;SHT30;59249;59.736;30.568;2023-12-20T07:57:35;2.65;80.05
71128;SHT30;59249;59.736;30.568;2023-12-20T08:00:17;2.54;80.24
71128;SHT30;59249;59.736;30.568;2023-12-20T08:02:52;2.58;80.33
71128;SHT30;59249;59.736;30.568;2023-12-20T08:05:23;2.51;80.34
71128;SHT30;59249;59.736;30.568;2023-12-20T08:07:54;2.43;80.38
71128;SHT30;59249;59.736;30.568;2023-12-20T08:10:24;2.37;80.43
71128;SHT30;59249;59.736;30.568;2023-12-20T08:13:04;2.49;80.58
71128;SHT30;59249;59.736;30.568;2023-12-20T08:15:52;2.42;80.65
71128;SHT30;59249;59.736;30.568;2023-12-20T08:18:37;2.54;80.65
71128;SHT30;59249;59.736;30.568;2023-12-20T08:21:06;2.52;80.38
71128;SHT30;59249;59.736;30.568;2023-12-20T08:23:47;2.55;80.46
71128;SHT30;59249;59.736;30.568;2023-12-20T08:26:21;2.56;80.38
71128;SHT30;59249;59.736;30.568;2023-12-20T08:29:01;2.58;80.51
71128;SHT30;59249;59.736;30.568;2023-12-20T08:31:39;2.76;80.25
71128;SHT30;59249;59.736;30.568;2023-12-20T08:34:16;2.74;80.36
71128;SHT30;59249;59.736;30.568;2023-12-20T08:36:55;2.69;80.03
71128;SHT30;59249;59.736;30.568;2023-12-20T08:39:29;2.79;80.58
71128;SHT30;59249;59.736;30.568;2023-12-20T08:42:01;2.73;80.39
71128;SHT30;59249;59.736;30.568;2023-12-20T08:44:41;2.94;80.03
71128;SHT30;59249;59.736;30.568;2023-12-20T08:47:11;2.81;79.86
71128;SHT30;59249;59.736;30.568;2023-12-20T08:49:44;2.79;79.80
71128;SHT30;59249;59.736;30.568;2023-12-20T08:52:16;2.77;79.86
71128;SHT30;59249;59.736;30.568;2023-12-20T08:54:47;2.81;79.86
71128;SHT30;59249;59.736;30.568;2023-12-20T08:57:23;2.83;80.11
71128;SHT30;59249;59.736;30.568;2023-12-20T08:59:58;2.76;79.95
71128;SHT30;59249;59.736;30.568;2023-12-20T09:02:36;2.79;79.68
71128;SHT30;59249;59.736;30.568;2023-12-20T09:05:07;2.88;79.94
71128;SHT30;59249;59.736;30.568;2023-12-20T09:07:37;2.78;80.01
71128;SHT30;59249;59.736;30.568;2023-12-20T09:10:25;2.85;80.23
71128;SHT30;59249;59.736;30.568;2023-12-20T09:12:56;2.71;80.27
71128;SHT30;59249;59.736;30.568;2023-12-20T09:15:27;2.75;80.35
71128;SHT30;59249;59.736;30.568;2023-12-20T09:18:07;2.84;80.12
71128;SHT30;59249;59.736;30.568;2023-12-20T09:20:42;2.74;80.08
71128;SHT30;59249;59.736;30.568;2023-12-20T09:23:16;2.85;80.21
71128;SHT30;59249;59.736;30.568;2023-12-20T09:25:57;2.74;80.34
71128;SHT30;59249;59.736;30.568;2023-12-20T09:28:28;2.78;80.50
71128;SHT30;59249;59.736;30.568;2023-12-20T09:31:09;2.85;80.10
71128;SHT30;59249;59.736;30.568;2023-12-20T09:33:56;2.81;80.43
71128;SHT30;59249;59.736;30.568;2023-12-20T09:36:32;2.74;80.55
71128;SHT30;59249;59.736;30.568;2023-12-20T09:39:09;2.68;80.30
71128;SHT30;59249;59.736;30.568;2023-12-20T09:41:44;2.80;80.49
71128;SHT30;59249;59.736;30.568;2023-12-20T09:44:23;2.73;80.38
71128;SHT30;59249;59.736;30.568;2023-12-20T09:47:10;2.83;80.41
71128;SHT30;59249;59.736;30.568;2023-12-20T09:49:54;2.85;80.21
71128;SHT30;59249;59.736;30.568;2023-12-20T09:52:42;2.84;80.02
71128;SHT30;59249;59.736;30.568;2023-12-20T09:55:17;2.81;80.02
71128;SHT30;59249;59.736;30.568;2023-12-20T09:58:10;2.84;80.44
71128;SHT30;59249;59.736;30.568;2023-12-20T10:01:00;2.84;80.57
71128;SHT30;59249;59.736;30.568;2023-12-20T10:03:41;2.83;80.44
71128;SHT30;59249;59.736;30.568;2023-12-20T10:06:13;2.80;80.43
71128;SHT30;59249;59.736;30.568;2023-12-20T10:08:46;2.77;80.46
71128;SHT30;59249;59.736;30.568;2023-12-20T10:11:15;2.88;80.30
71128;SHT30;59249;59.736;30.568;2023-12-20T10:13:47;2.90;80.27
71128;SHT30;59249;59.736;30.568;2023-12-20T10:16:18;3.00;80.49
71128;SHT30;59249;59.736;30.568;2023-12-20T10:19:02;2.91;80.54
71128;SHT30;59249;59.736;30.568;2023-12-20T10:21:36;2.99;80.32
71128;SHT30;59249;59.736;30.568;2023-12-20T10:24:18;2.88;80.36
71128;SHT30;59249;59.736;30.568;2023-12-20T10:27:02;2.91;80.45
71128;SHT30;59249;59.736;30.568;2023-12-20T10:29:35;2.83;80.39
71128;SHT30;59249;59.736;30.568;2023-12-20T10:32:37;2.88;80.35
71128;SHT30;59249;59.736;30.568;2023-12-20T10:35:19;2.91;80.34
71128;SHT30;59249;59.736;30.568;2023-12-20T10:38:04;2.97;80.34
71128;SHT30;59249;59.736;30.568;2023-12-20T10:40:36;2.91;80.44
71128;SHT30;59249;59.736;30.568;2023-12-20T10:43:12;3.11;80.14
71128;SHT30;59249;59.736;30.568;2023-12-20T10:45:47;2.86;80.36
71128;SHT30;59249;59.736;30.568;2023-12-20T10:48:22;2.97;80.14
71128;SHT30;59249;59.736;30.568;2023-12-20T10:51:02;2.94;80.20
71128;SHT30;59249;59.736;30.568;2023-12-20T10:53:38;2.93;80.24
71128;SHT30;59249;59.736;30.568;2023-12-20T10:56:17;2.93;80.10
71128;SHT30;59249;59.736;30.568;2023-12-20T10:59:18;2.98;80.18
71128;SHT30;59249;59.736;30.568;2023-12-20T11:01:55;2.93;80.26
71128;SHT30;59249;59.736;30.568;2023-12-20T11:04:36;2.92;80.23
71128;SHT30;59249;59.736;30.568;2023-12-20T11:07:21;2.96;79.99
71128;SHT30;59249;59.736;30.568;2023-12-20T11:09:59;2.87;80.14
71128;SHT30;59249;59.736;30.568;2023-12-20T11:12:39;2.93;80.13
71128;SHT30;59249;59.736;30.568;2023-12-20T11:15:14;3.03;80.24
71128;SHT30;59249;59.736;30.568;2023-12-20T11:17:51;3.05;80.03
71128;SHT30;59249;59.736;30.568;2023-12-20T11:20:39;3.10;80.24
71128;SHT30;59249;59.736;30.568;2023-12-20T11:23:11;2.94;80.09
71128;SHT30;59249;59.736;30.568;2023-12-20T11:25:55;3.00;80.15
71128;SHT30;59249;59.736;30.568;2023-12-20T11:28:31;2.91;80.17
71128;SHT30;59249;59.736;30.568;2023-12-20T11:31:04;2.89;80.23
71128;SHT30;59249;59.736;30.568;2023-12-20T11:33:37;2.89;80.25
71128;SHT30;59249;59.736;30.568;2023-12-20T11:36:18;2.96;80.09
71128;SHT30;59249;59.736;30.568;2023-12-20T11:38:56;2.88;80.27
71128;SHT30;59249;59.736;30.568;2023-12-20T11:41:33;3.01;79.92
71128;SHT30;59249;59.736;30.568;2023-12-20T11:44:04;3.04;79.99
71128;SHT30;59249;59.736;30.568;2023-12-20T11:46:36;3.02;80.22
71128;SHT30;59249;59.736;30.568;2023-12-20T11:49:11;2.95;80.10
71128;SHT30;59249;59.736;30.568;2023-12-20T11:51:44;3.04;80.19
71128;SHT30;59249;59.736;30.568;2023-12-20T11:57:06;2.98;80.41
71128;SHT30;59249;59.736;30.568;2023-12-20T11:59:36;2.83;80.37
71128;SHT30;59249;59.736;30.568;2023-12-20T12:02:11;3.00;80.63
71128;SHT30;59249;59.736;30.568;2023-12-20T12:04:41;2.88;80.37
71128;SHT30;59249;59.736;30.568;2023-12-20T12:07:11;3.03;80.20
71128;SHT30;59249;59.736;30.568;2023-12-20T12:09:46;2.94;80.41
71128;SHT30;59249;59.736;30.568;2023-12-20T12:12:19;3.04;80.29
71128;SHT30;59249;59.736;30.568;2023-12-20T12:14:51;3.02;80.18
71128;SHT30;59249;59.736;30.568;2023-12-20T12:17:23;2.91;80.15
71128;SHT30;59249;59.736;30.568;2023-12-20T12:20:03;2.95;80.33
71128;SHT30;59249;59.736;30.568;2023-12-20T12:22:40;2.87;80.31
71128;SHT30;59249;59.736;30.568;2023-12-20T12:25:18;2.95;80.50
71128;SHT30;59249;59.736;30.568;2023-12-20T12:27:53;2.95;80.51
71128;SHT30;59249;59.736;30.568;2023-12-20T12:30:27;2.87;80.51
71128;SHT30;59249;59.736;30.568;2023-12-20T12:33:08;2.91;80.33
71128;SHT30;59249;59.736;30.568;2023-12-20T12:35:41;2.85;80.41
71128;SHT30;59249;59.736;30.568;2023-12-20T12:38:21;2.86;80.49
71128;SHT30;59249;59.736;30.568;2023-12-20T12:41:02;2.80;80.42
71128;SHT30;59249;59.736;30.568;2023-12-20T12:43:34;2.79;80.22
71128;SHT30;59249;59.736;30.568;2023-12-20T12:46:07;2.69;80.50
71128;SHT30;59249;59.736;30.568;2023-12-20T12:48:40;2.70;80.59
71128;SHT30;59249;59.736;30.568;2023-12-20T12:51:18;2.66;80.84
71128;SHT30;59249;59.736;30.568;2023-12-20T12:53:53;2.60;80.87
71128;SHT30;59249;59.736;30.568;2023-12-20T12:56:30;2.62;80.93
71128;SHT30;59249;59.736;30.568;2023-12-20T12:59:04;2.50;81.08
71128;SHT30;59249;59.736;30.568;2023-12-20T13:01:41;2.58;81.08
71128;SHT30;59249;59.736;30.568;2023-12-20T13:04:11;2.54;80.89
71128;SHT30;59249;59.736;30.568;2023-12-20T13:06:46;2.53;81.01
71128;SHT30;59249;59.736;30.568;2023-12-20T13:09:18;2.55;81.07
71128;SHT30;59249;59.736;30.568;2023-12-20T13:11:50;2.37;81.17
71128;SHT30;59249;59.736;30.568;2023-12-20T13:14:22;2.35;81.25
71128;SHT30;59249;59.736;30.568;2023-12-20T13:16:53;2.26;81.54
71128;SHT30;59249;59.736;30.568;2023-12-20T13:19:28;2.27;81.52
71128;SHT30;59249;59.736;30.568;2023-12-20T13:22:01;2.12;81.65
71128;SHT30;59249;59.736;30.568;2023-12-20T13:24:40;2.06;81.77
71128;SHT30;59249;59.736;30.568;2023-12-20T13:27:20;2.04;81.90
71128;SHT30;59249;59.736;30.568;2023-12-20T13:29:52;1.85;82.07
71128;SHT30;59249;59.736;30.568;2023-12-20T13:32:21;1.86;82.16
71128;SHT30;59249;59.736;30.568;2023-12-20T13:34:52;1.87;82.17
71128;SHT30;59249;59.736;30.568;2023-12-20T13:37:22;1.84;82.35
71128;SHT30;59249;59.736;30.568;2023-12-20T13:39:51;1.84;82.39
71128;SHT30;59249;59.736;30.568;2023-12-20T13:42:21;1.75;82.53
71128;SHT30;59249;59.736;30.568;2023-12-20T13:44:51;1.89;82.68
71128;SHT30;59249;59.736;30.568;2023-12-20T13:47:21;1.83;82.70
71128;SHT30;59249;59.736;30.568;2023-12-20T13:49:51;1.78;82.65
71128;SHT30;59249;59.736;30.568;2023-12-20T13:52:27;1.71;82.82
71128;SHT30;59249;59.736;30.568;2023-12-20T13:55:10;1.74;82.83
71128;SHT30;59249;59.736;30.568;2023-12-20T13:57:44;1.62;82.94
71128;SHT30;59249;59.736;30.568;2023-12-20T14:00:23;1.66;82.91
71128;SHT30;59249;59.736;30.568;2023-12-20T14:02:56;1.60;83.10
71128;SHT30;59249;59.736;30.568;2023-12-20T14:05:34;1.52;83.11
71128;SHT30;59249;59.736;30.568;2023-12-20T14:08:18;1.55;83.07
71128;SHT30;59249;59.736;30.568;2023-12-20T14:10:47;1.53;83.21
71128;SHT30;59249;59.736;30.568;2023-12-20T14:13:18;1.55;83.24
71128;SHT30;59249;59.736;30.568;2023-12-20T14:15:49;1.37;83.30
71128;SHT30;59249;59.736;30.568;2023-12-20T14:18:24;1.43;83.39
71128;SHT30;59249;59.736;30.568;2023-12-20T14:20:54;1.40;83.26
71128;SHT30;59249;59.736;30.568;2023-12-20T14:23:24;1.30;83.79
71128;SHT30;59249;59.736;30.568;2023-12-20T14:25:54;1.32;83.43
71128;SHT30;59249;59.736;30.568;2023-12-20T14:28:29;1.28;83.92
71128;SHT30;59249;59.736;30.568;2023-12-20T14:31:05;1.19;83.97
71128;SHT30;59249;59.736;30.568;2023-12-20T14:33:39;1.20;83.85
71128;SHT30;59249;59.736;30.568;2023-12-20T14:36:14;1.17;83.96
71128;SHT30;59249;59.736;30.568;2023-12-20T14:38:47;1.24;84.02
71128;SHT30;59249;59.736;30.568;2023-12-20T14:41:17;1.16;84.04
71128;SHT30;59249;59.736;30.568;2023-12-20T14:43:47;1.16;84.08
71128;SHT30;59249;59.736;30.568;2023-12-20T14:46:17;1.11;84.19
71128;SHT30;59249;59.736;30.568;2023-12-20T14:48:46;1.07;84.39
71128;SHT30;59249;59.736;30.568;2023-12-20T14:51:16;1.06;84.11
71128;SHT30;59249;59.736;30.568;2023-12-20T14:53:45;0.95;84.25
71128;SHT30;59249;59.736;30.568;2023-12-20T14:56:16;0.91;84.30
71128;SHT30;59249;59.736;30.568;2023-12-20T14:59:04;0.84;84.30
71128;SHT30;59249;59.736;30.568;2023-12-20T15:01:38;0.90;84.49
71128;SHT30;59249;59.736;30.568;2023-12-20T15:04:36;0.76;84.52
71128;SHT30;59249;59.736;30.568;2023-12-20T15:07:23;0.79;84.69
71128;SHT30;59249;59.736;30.568;2023-12-20T15:09:55;0.74;84.82
71128;SHT30;59249;59.736;30.568;2023-12-20T15:12:26;0.77;84.75
71128;SHT30;59249;59.736;30.568;2023-12-20T15:14:59;0.76;84.95
71128;SHT30;59249;59.736;30.568;2023-12-20T15:17:31;0.85;84.94
71128;SHT30;59249;59.736;30.568;2023-12-20T15:20:00;0.72;85.06
71128;SHT30;59249;59.736;30.568;2023-12-20T15:22:30;0.72;84.90
71128;SHT30;59249;59.736;30.568;2023-12-20T15:25:08;0.73;85.02
71128;SHT30;59249;59.736;30.568;2023-12-20T15:27:41;0.70;85.14
71128;SHT30;59249;59.736;30.568;2023-12-20T15:30:13;0.80;85.04
71128;SHT30;59249;59.736;30.568;2023-12-20T15:32:42;0.62;84.98
71128;SHT30;59249;59.736;30.568;2023-12-20T15:35:17;0.66;85.06
71128;SHT30;59249;59.736;30.568;2023-12-20T15:37:52;0.77;84.96
71128;SHT30;59249;59.736;30.568;2023-12-20T15:40:24;0.69;85.04
71128;SHT30;59249;59.736;30.568;2023-12-20T15:42:54;0.69;84.91
71128;SHT30;59249;59.736;30.568;2023-12-20T15:45:38;0.61;85.11
71128;SHT30;59249;59.736;30.568;2023-12-20T15:48:23;0.71;85.18
71128;SHT30;59249;59.736;30.568;2023-12-20T15:51:08;0.65;85.04
71128;SHT30;59249;59.736;30.568;2023-12-20T15:53:40;0.64;85.05
71128;SHT30;59249;59.736;30.568;2023-12-20T15:56:15;0.59;85.20
71128;SHT30;59249;59.736;30.568;2023-12-20T15:58:52;0.62;85.30
71128;SHT30;59249;59.736;30.568;2023-12-20T16:01:38;0.62;85.40
71128;SHT30;59249;59.736;30.568;2023-12-20T16:04:26;0.61;85.33
71128;SHT30;59249;59.736;30.568;2023-12-20T16:07:08;0.66;85.42
71128;SHT30;59249;59.736;30.568;2023-12-20T16:09:47;0.63;85.48